Linwood, Texas
Current Conditions -  °F | °C
As of 8:15 PM on Monday 22 Dec 2014 (Local Time) from KJSO Reporting Station
Clear Clear  
Wind Chill: 16°   Ceiling: Unl
Heat Index: 16°   Visibility: 10mi
Dew Point:   Wind: 5mph
Humidity: 61%   Direction: 310°NW
Pressure: 29.66"   Gusts: NA
Location:  31.6384°N, 95.0772°W
Report Text: KJSO 230215Z AUTO 31004KT 10SM CLR 16/08 A2966 RMK AO2 T01590085
Loading
Personal Weather Stations






























Interactive Weather Map New forecast layout! Learn more

10-Day Weather Forecast

Advertisements
Track Severe Weather on mobile